sensor_id;sensor_type;location;lat;lon;timestamp;pressure;altitude;pressure_sealevel;temperature;humidity
76592;BME280;65481;47.600;19.682;2023-10-08T00:03:24;100248.84;;;18.95;44.75
76592;BME280;65481;47.600;19.682;2023-10-08T00:08:29;100251.75;;;18.93;45.03
76592;BME280;65481;47.600;19.682;2023-10-08T00:13:30;100256.56;;;18.96;44.74
76592;BME280;65481;47.600;19.682;2023-10-08T00:18:30;100246.16;;;18.95;44.83
76592;BME280;65481;47.600;19.682;2023-10-08T00:23:30;100239.78;;;18.85;45.30
76592;BME280;65481;47.600;19.682;2023-10-08T00:28:31;100242.75;;;18.84;45.24
76592;BME280;65481;47.600;19.682;2023-10-08T00:33:32;100249.44;;;18.81;44.97
76592;BME280;65481;47.600;19.682;2023-10-08T00:38:33;100253.50;;;18.79;44.88
76592;BME280;65481;47.600;19.682;2023-10-08T00:43:34;100243.38;;;18.75;44.73
76592;BME280;65481;47.600;19.682;2023-10-08T00:48:35;100229.22;;;18.75;44.87
76592;BME280;65481;47.600;19.682;2023-10-08T00:53:36;100220.47;;;18.69;45.20
76592;BME280;65481;47.600;19.682;2023-10-08T00:58:43;100211.66;;;18.64;45.53
76592;BME280;65481;47.600;19.682;2023-10-08T01:03:47;100198.31;;;18.64;45.52
76592;BME280;65481;47.600;19.682;2023-10-08T01:08:50;100204.69;;;18.68;45.35
76592;BME280;65481;47.600;19.682;2023-10-08T01:13:54;100196.94;;;18.71;45.15
76592;BME280;65481;47.600;19.682;2023-10-08T01:18:55;100187.53;;;18.74;44.88
76592;BME280;65481;47.600;19.682;2023-10-08T01:23:56;100181.00;;;18.85;44.00
76592;BME280;65481;47.600;19.682;2023-10-08T01:29:00;100177.97;;;18.92;43.64
76592;BME280;65481;47.600;19.682;2023-10-08T01:34:04;100171.00;;;18.96;43.43
76592;BME280;65481;47.600;19.682;2023-10-08T01:39:05;100158.72;;;18.95;43.43
76592;BME280;65481;47.600;19.682;2023-10-08T01:44:07;100165.97;;;18.95;43.28
76592;BME280;65481;47.600;19.682;2023-10-08T01:49:08;100150.50;;;18.86;43.35
76592;BME280;65481;47.600;19.682;2023-10-08T01:54:14;100138.50;;;18.84;43.37
76592;BME280;65481;47.600;19.682;2023-10-08T01:59:15;100135.94;;;18.73;43.42
76592;BME280;65481;47.600;19.682;2023-10-08T02:04:16;100137.88;;;18.68;43.77
76592;BME280;65481;47.600;19.682;2023-10-08T02:09:17;100139.88;;;18.57;44.17
76592;BME280;65481;47.600;19.682;2023-10-08T02:14:20;100136.47;;;18.51;44.38
76592;BME280;65481;47.600;19.682;2023-10-08T02:19:22;100127.75;;;18.40;44.72
76592;BME280;65481;47.600;19.682;2023-10-08T02:24:30;100126.72;;;18.36;45.05
76592;BME280;65481;47.600;19.682;2023-10-08T02:29:30;100127.84;;;18.30;45.42
76592;BME280;65481;47.600;19.682;2023-10-08T02:34:31;100124.50;;;18.19;45.70
76592;BME280;65481;47.600;19.682;2023-10-08T02:39:31;100131.03;;;18.03;46.18
76592;BME280;65481;47.600;19.682;2023-10-08T02:44:32;100135.13;;;17.90;46.65
76592;BME280;65481;47.600;19.682;2023-10-08T02:49:32;100133.09;;;17.76;47.23
76592;BME280;65481;47.600;19.682;2023-10-08T02:54:35;100126.47;;;17.68;47.86
76592;BME280;65481;47.600;19.682;2023-10-08T02:59:38;100120.66;;;17.56;48.44
76592;BME280;65481;47.600;19.682;2023-10-08T03:04:43;100107.63;;;17.54;49.20
76592;BME280;65481;47.600;19.682;2023-10-08T03:09:47;100103.31;;;17.59;49.82
76592;BME280;65481;47.600;19.682;2023-10-08T03:14:50;100097.69;;;17.60;50.49
76592;BME280;65481;47.600;19.682;2023-10-08T03:20:10;100103.59;;;17.57;50.86
76592;BME280;65481;47.600;19.682;2023-10-08T03:25:29;100104.41;;;17.58;51.06
76592;BME280;65481;47.600;19.682;2023-10-08T03:30:30;100099.72;;;17.39;52.06
76592;BME280;65481;47.600;19.682;2023-10-08T03:35:33;100090.47;;;17.21;52.92
76592;BME280;65481;47.600;19.682;2023-10-08T03:40:37;100085.00;;;17.02;54.08
76592;BME280;65481;47.600;19.682;2023-10-08T03:45:43;100071.44;;;16.88;54.37
76592;BME280;65481;47.600;19.682;2023-10-08T03:50:59;100075.44;;;16.85;54.52
76592;BME280;65481;47.600;19.682;2023-10-08T03:56:07;100069.53;;;16.99;54.72
76592;BME280;65481;47.600;19.682;2023-10-08T04:01:07;100061.66;;;17.28;53.84
76592;BME280;65481;47.600;19.682;2023-10-08T04:06:23;100058.38;;;17.36;53.77
76592;BME280;65481;47.600;19.682;2023-10-08T04:11:29;100062.41;;;17.34;54.17
76592;BME280;65481;47.600;19.682;2023-10-08T04:16:32;100068.91;;;17.17;54.82
76592;BME280;65481;47.600;19.682;2023-10-08T04:21:38;100053.84;;;16.92;55.18
76592;BME280;65481;47.600;19.682;2023-10-08T04:26:43;100048.81;;;16.80;55.54
76592;BME280;65481;47.600;19.682;2023-10-08T04:31:44;100051.78;;;16.73;55.63
76592;BME280;65481;47.600;19.682;2023-10-08T04:36:45;100058.69;;;16.79;56.22
76592;BME280;65481;47.600;19.682;2023-10-08T04:41:46;100051.13;;;17.07;56.28
76592;BME280;65481;47.600;19.682;2023-10-08T04:46:48;100038.66;;;17.37;55.49
76592;BME280;65481;47.600;19.682;2023-10-08T04:51:56;100061.50;;;17.49;55.49
76592;BME280;65481;47.600;19.682;2023-10-08T04:57:01;100049.72;;;17.55;55.55
76592;BME280;65481;47.600;19.682;2023-10-08T05:02:04;100049.41;;;17.62;55.36
76592;BME280;65481;47.600;19.682;2023-10-08T05:07:35;100053.84;;;17.71;55.31
76592;BME280;65481;47.600;19.682;2023-10-08T05:12:44;100051.16;;;17.77;55.21
76592;BME280;65481;47.600;19.682;2023-10-08T05:18:02;100064.66;;;17.91;54.93
76592;BME280;65481;47.600;19.682;2023-10-08T05:23:23;100082.44;;;18.06;54.70
76592;BME280;65481;47.600;19.682;2023-10-08T05:28:25;100074.31;;;18.16;54.70
76592;BME280;65481;47.600;19.682;2023-10-08T05:33:25;100072.91;;;18.24;54.80
76592;BME280;65481;47.600;19.682;2023-10-08T05:38:28;100069.84;;;18.36;55.18
76592;BME280;65481;47.600;19.682;2023-10-08T05:43:49;100060.88;;;18.51;55.31
76592;BME280;65481;47.600;19.682;2023-10-08T05:48:59;100060.34;;;18.73;55.26
76592;BME280;65481;47.600;19.682;2023-10-08T05:54:20;100053.38;;;18.96;54.96
76592;BME280;65481;47.600;19.682;2023-10-08T05:59:28;100067.25;;;19.17;54.28
76592;BME280;65481;47.600;19.682;2023-10-08T06:04:38;100071.31;;;19.34;53.85
76592;BME280;65481;47.600;19.682;2023-10-08T06:10:05;100077.22;;;19.50;52.99
76592;BME280;65481;47.600;19.682;2023-10-08T06:15:14;100074.91;;;19.62;52.47
76592;BME280;65481;47.600;19.682;2023-10-08T06:20:14;100063.09;;;19.63;51.81
76592;BME280;65481;47.600;19.682;2023-10-08T06:25:17;100075.59;;;19.68;51.46
76592;BME280;65481;47.600;19.682;2023-10-08T06:30:24;100077.91;;;19.75;50.92
76592;BME280;65481;47.600;19.682;2023-10-08T06:35:29;100072.91;;;19.87;50.93
76592;BME280;65481;47.600;19.682;2023-10-08T06:40:29;100087.22;;;19.96;50.48
76592;BME280;65481;47.600;19.682;2023-10-08T06:45:49;100097.03;;;20.01;50.53
76592;BME280;65481;47.600;19.682;2023-10-08T06:50:53;100105.78;;;20.07;50.12
76592;BME280;65481;47.600;19.682;2023-10-08T06:56:07;100100.72;;;20.05;50.44
76592;BME280;65481;47.600;19.682;2023-10-08T07:01:11;100093.28;;;20.02;51.03
76592;BME280;65481;47.600;19.682;2023-10-08T07:06:13;100094.88;;;20.03;51.04
76592;BME280;65481;47.600;19.682;2023-10-08T07:11:17;100109.53;;;20.06;51.38
76592;BME280;65481;47.600;19.682;2023-10-08T07:16:19;100092.91;;;20.23;51.46
76592;BME280;65481;47.600;19.682;2023-10-08T07:21:21;100110.72;;;20.88;49.68
76592;BME280;65481;47.600;19.682;2023-10-08T07:26:45;100117.50;;;21.82;47.69
76592;BME280;65481;47.600;19.682;2023-10-08T07:31:49;100111.91;;;22.64;45.60
76592;BME280;65481;47.600;19.682;2023-10-08T07:36:50;100113.28;;;23.72;42.75
76592;BME280;65481;47.600;19.682;2023-10-08T07:41:53;100104.66;;;24.44;40.84
76592;BME280;65481;47.600;19.682;2023-10-08T07:46:57;100095.88;;;24.86;40.24
76592;BME280;65481;47.600;19.682;2023-10-08T07:51:58;100110.81;;;25.68;38.68
76592;BME280;65481;47.600;19.682;2023-10-08T07:57:00;100117.94;;;25.73;38.41
76592;BME280;65481;47.600;19.682;2023-10-08T08:02:13;100110.88;;;25.93;37.89
76592;BME280;65481;47.600;19.682;2023-10-08T08:07:14;100115.72;;;25.88;37.78
76592;BME280;65481;47.600;19.682;2023-10-08T08:12:20;100107.00;;;26.40;37.00
76592;BME280;65481;47.600;19.682;2023-10-08T08:17:22;100119.06;;;26.30;37.01
76592;BME280;65481;47.600;19.682;2023-10-08T08:22:25;100127.75;;;26.86;36.17
76592;BME280;65481;47.600;19.682;2023-10-08T08:27:31;100132.38;;;27.26;35.59
76592;BME280;65481;47.600;19.682;2023-10-08T08:32:31;100139.78;;;27.01;35.95
76592;BME280;65481;47.600;19.682;2023-10-08T08:37:32;100125.06;;;27.27;35.96
76592;BME280;65481;47.600;19.682;2023-10-08T08:42:35;100137.53;;;27.44;35.47
76592;BME280;65481;47.600;19.682;2023-10-08T08:47:37;100147.03;;;27.38;35.74
76592;BME280;65481;47.600;19.682;2023-10-08T08:52:39;100156.03;;;27.83;34.91
76592;BME280;65481;47.600;19.682;2023-10-08T08:57:48;100149.03;;;26.25;37.52
76592;BME280;65481;47.600;19.682;2023-10-08T09:02:49;100162.31;;;24.61;40.83
76592;BME280;65481;47.600;19.682;2023-10-08T09:08:06;100173.94;;;23.87;43.19
76592;BME280;65481;47.600;19.682;2023-10-08T09:13:07;100185.31;;;23.93;43.62
76592;BME280;65481;47.600;19.682;2023-10-08T09:18:09;100197.59;;;24.56;42.49
76592;BME280;65481;47.600;19.682;2023-10-08T09:23:11;100199.47;;;25.24;41.04
76592;BME280;65481;47.600;19.682;2023-10-08T09:28:12;100206.28;;;24.70;42.19
76592;BME280;65481;47.600;19.682;2023-10-08T09:33:14;100228.28;;;24.16;43.44
76592;BME280;65481;47.600;19.682;2023-10-08T09:38:15;100232.09;;;23.80;44.67
76592;BME280;65481;47.600;19.682;2023-10-08T09:43:23;100252.03;;;23.52;45.75
76592;BME280;65481;47.600;19.682;2023-10-08T09:48:26;100256.22;;;22.78;48.29
76592;BME280;65481;47.600;19.682;2023-10-08T09:54:05;100279.63;;;22.46;50.13
76592;BME280;65481;47.600;19.682;2023-10-08T09:58:58;100302.38;;;22.48;51.12
76592;BME280;65481;47.600;19.682;2023-10-08T10:03:59;100308.22;;;22.05;54.01
76592;BME280;65481;47.600;19.682;2023-10-08T10:09:00;100304.34;;;22.57;53.12
76592;BME280;65481;47.600;19.682;2023-10-08T10:14:02;100306.69;;;23.12;51.99
76592;BME280;65481;47.600;19.682;2023-10-08T10:19:16;100298.94;;;23.78;50.02
76592;BME280;65481;47.600;19.682;2023-10-08T10:24:36;100297.59;;;23.98;49.71
76592;BME280;65481;47.600;19.682;2023-10-08T10:29:37;100301.97;;;24.55;47.90
76592;BME280;65481;47.600;19.682;2023-10-08T10:34:39;100308.03;;;24.26;46.62
76592;BME280;65481;47.600;19.682;2023-10-08T10:39:40;100305.63;;;23.89;46.14
76592;BME280;65481;47.600;19.682;2023-10-08T10:44:42;100317.25;;;23.40;46.04
76592;BME280;65481;47.600;19.682;2023-10-08T10:49:48;100318.72;;;22.83;46.86
76592;BME280;65481;47.600;19.682;2023-10-08T10:54:52;100317.88;;;22.29;48.18
76592;BME280;65481;47.600;19.682;2023-10-08T11:00:05;100307.78;;;22.12;48.92
76592;BME280;65481;47.600;19.682;2023-10-08T11:05:26;100307.84;;;21.84;49.82
76592;BME280;65481;47.600;19.682;2023-10-08T11:10:34;100315.03;;;21.46;50.61
76592;BME280;65481;47.600;19.682;2023-10-08T11:15:35;100319.22;;;21.25;52.31
76592;BME280;65481;47.600;19.682;2023-10-08T11:20:41;100316.63;;;21.20;52.13
76592;BME280;65481;47.600;19.682;2023-10-08T11:25:58;100318.66;;;20.95;50.75
76592;BME280;65481;47.600;19.682;2023-10-08T11:31:06;100344.72;;;20.75;49.75
76592;BME280;65481;47.600;19.682;2023-10-08T11:36:10;100342.53;;;20.44;47.02
76592;BME280;65481;47.600;19.682;2023-10-08T11:41:19;100343.41;;;20.20;47.21
76592;BME280;65481;47.600;19.682;2023-10-08T11:46:28;100362.81;;;20.12;48.54
76592;BME280;65481;47.600;19.682;2023-10-08T11:51:55;100366.22;;;19.99;47.02
76592;BME280;65481;47.600;19.682;2023-10-08T11:57:01;100382.75;;;19.76;45.57
76592;BME280;65481;47.600;19.682;2023-10-08T12:02:03;100403.31;;;19.57;46.02
76592;BME280;65481;47.600;19.682;2023-10-08T12:07:05;100406.97;;;19.42;46.07
76592;BME280;65481;47.600;19.682;2023-10-08T12:12:07;100410.34;;;19.23;46.23
76592;BME280;65481;47.600;19.682;2023-10-08T12:17:09;100419.53;;;19.12;46.39
76592;BME280;65481;47.600;19.682;2023-10-08T12:22:11;100434.56;;;19.02;46.74
76592;BME280;65481;47.600;19.682;2023-10-08T12:27:18;100446.13;;;18.92;45.68
76592;BME280;65481;47.600;19.682;2023-10-08T12:32:18;100442.72;;;18.82;45.16
76592;BME280;65481;47.600;19.682;2023-10-08T12:37:26;100441.56;;;18.98;45.40
76592;BME280;65481;47.600;19.682;2023-10-08T12:42:27;100439.38;;;19.05;45.09
76592;BME280;65481;47.600;19.682;2023-10-08T12:47:27;100445.59;;;18.96;45.33
76592;BME280;65481;47.600;19.682;2023-10-08T12:52:29;100461.97;;;18.79;45.34
76592;BME280;65481;47.600;19.682;2023-10-08T12:57:30;100456.72;;;18.63;45.25
76592;BME280;65481;47.600;19.682;2023-10-08T13:02:35;100470.84;;;18.69;45.46
76592;BME280;65481;47.600;19.682;2023-10-08T13:07:39;100476.47;;;18.67;45.38
76592;BME280;65481;47.600;19.682;2023-10-08T13:12:43;100488.78;;;18.63;45.39
76592;BME280;65481;47.600;19.682;2023-10-08T13:17:44;100496.06;;;18.52;45.63
76592;BME280;65481;47.600;19.682;2023-10-08T13:22:46;100492.59;;;18.52;45.70
76592;BME280;65481;47.600;19.682;2023-10-08T13:27:48;100511.56;;;18.50;45.70
76592;BME280;65481;47.600;19.682;2023-10-08T13:32:49;100519.63;;;18.40;45.47
76592;BME280;65481;47.600;19.682;2023-10-08T13:37:49;100519.09;;;18.33;45.49
76592;BME280;65481;47.600;19.682;2023-10-08T13:42:50;100526.81;;;18.39;45.10
76592;BME280;65481;47.600;19.682;2023-10-08T13:47:53;100542.84;;;18.39;45.21
76592;BME280;65481;47.600;19.682;2023-10-08T13:52:57;100531.63;;;18.42;44.75
76592;BME280;65481;47.600;19.682;2023-10-08T13:57:59;100543.88;;;18.54;44.75
76592;BME280;65481;47.600;19.682;2023-10-08T14:03:01;100550.06;;;18.44;43.85
76592;BME280;65481;47.600;19.682;2023-10-08T14:08:08;100559.94;;;18.38;43.88
76592;BME280;65481;47.600;19.682;2023-10-08T14:13:16;100559.19;;;18.33;43.64
76592;BME280;65481;47.600;19.682;2023-10-08T14:18:19;100566.38;;;18.37;43.13
76592;BME280;65481;47.600;19.682;2023-10-08T14:23:27;100575.69;;;18.45;42.76
76592;BME280;65481;47.600;19.682;2023-10-08T14:28:29;100576.56;;;18.25;42.53
76592;BME280;65481;47.600;19.682;2023-10-08T14:33:53;100577.13;;;17.96;42.49
76592;BME280;65481;47.600;19.682;2023-10-08T14:39:05;100585.13;;;17.85;42.48
76592;BME280;65481;47.600;19.682;2023-10-08T14:44:25;100600.63;;;17.78;42.20
76592;BME280;65481;47.600;19.682;2023-10-08T14:49:26;100610.72;;;17.66;42.19
76592;BME280;65481;47.600;19.682;2023-10-08T14:54:27;100622.19;;;17.46;41.92
76592;BME280;65481;47.600;19.682;2023-10-08T14:59:28;100626.97;;;17.28;42.23
76592;BME280;65481;47.600;19.682;2023-10-08T15:04:31;100633.88;;;17.24;42.25
76592;BME280;65481;47.600;19.682;2023-10-08T15:09:33;100644.78;;;17.17;42.58
76592;BME280;65481;47.600;19.682;2023-10-08T15:14:34;100649.03;;;17.13;42.83
76592;BME280;65481;47.600;19.682;2023-10-08T15:19:35;100662.78;;;16.94;42.77
76592;BME280;65481;47.600;19.682;2023-10-08T15:24:36;100676.81;;;16.74;43.33
76592;BME280;65481;47.600;19.682;2023-10-08T15:29:39;100685.00;;;16.62;43.31
76592;BME280;65481;47.600;19.682;2023-10-08T15:34:40;100687.31;;;16.48;43.34
76592;BME280;65481;47.600;19.682;2023-10-08T15:39:42;100699.47;;;16.34;43.36
76592;BME280;65481;47.600;19.682;2023-10-08T15:44:43;100700.09;;;16.14;42.99
76592;BME280;65481;47.600;19.682;2023-10-08T15:49:44;100711.84;;;15.90;43.03
76592;BME280;65481;47.600;19.682;2023-10-08T15:54:46;100717.75;;;15.70;43.10
76592;BME280;65481;47.600;19.682;2023-10-08T15:59:48;100719.63;;;15.48;43.41
76592;BME280;65481;47.600;19.682;2023-10-08T16:04:50;100730.00;;;15.27;43.46
76592;BME280;65481;47.600;19.682;2023-10-08T16:09:51;100742.53;;;15.09;43.75
76592;BME280;65481;47.600;19.682;2023-10-08T16:14:52;100762.72;;;14.88;44.06
76592;BME280;65481;47.600;19.682;2023-10-08T16:19:53;100776.56;;;14.73;43.93
76592;BME280;65481;47.600;19.682;2023-10-08T16:24:54;100787.00;;;14.63;43.85
76592;BME280;65481;47.600;19.682;2023-10-08T16:29:56;100791.91;;;14.54;43.81
76592;BME280;65481;47.600;19.682;2023-10-08T16:34:57;100806.03;;;14.43;43.72
76592;BME280;65481;47.600;19.682;2023-10-08T16:39:58;100824.69;;;14.31;43.54
76592;BME280;65481;47.600;19.682;2023-10-08T16:45:00;100829.47;;;14.17;43.41
76592;BME280;65481;47.600;19.682;2023-10-08T16:50:01;100836.00;;;13.97;43.39
76592;BME280;65481;47.600;19.682;2023-10-08T16:55:04;100849.19;;;13.80;43.65
76592;BME280;65481;47.600;19.682;2023-10-08T17:00:07;100865.13;;;13.68;43.96
76592;BME280;65481;47.600;19.682;2023-10-08T17:05:12;100862.94;;;13.53;44.24
76592;BME280;65481;47.600;19.682;2023-10-08T17:10:16;100868.84;;;13.43;44.81
76592;BME280;65481;47.600;19.682;2023-10-08T17:15:20;100886.06;;;13.34;45.13
76592;BME280;65481;47.600;19.682;2023-10-08T17:20:22;100888.50;;;13.24;45.74
76592;BME280;65481;47.600;19.682;2023-10-08T17:25:24;100898.63;;;13.15;46.35
76592;BME280;65481;47.600;19.682;2023-10-08T17:30:25;100911.53;;;13.11;47.00
76592;BME280;65481;47.600;19.682;2023-10-08T17:35:27;100916.81;;;12.99;47.77
76592;BME280;65481;47.600;19.682;2023-10-08T17:40:28;100919.50;;;12.81;48.74
76592;BME280;65481;47.600;19.682;2023-10-08T17:45:34;100923.97;;;12.68;49.30
76592;BME280;65481;47.600;19.682;2023-10-08T17:50:37;100926.25;;;12.65;49.74
76592;BME280;65481;47.600;19.682;2023-10-08T17:55:38;100933.47;;;12.57;50.02
76592;BME280;65481;47.600;19.682;2023-10-08T18:00:39;100937.44;;;12.48;50.43
76592;BME280;65481;47.600;19.682;2023-10-08T18:05:44;100951.88;;;12.34;50.97
76592;BME280;65481;47.600;19.682;2023-10-08T18:10:46;100953.06;;;12.19;51.84
76592;BME280;65481;47.600;19.682;2023-10-08T18:15:47;100952.91;;;12.14;52.63
76592;BME280;65481;47.600;19.682;2023-10-08T18:20:48;100970.81;;;12.12;52.99
76592;BME280;65481;47.600;19.682;2023-10-08T18:25:52;100997.19;;;12.00;53.72
76592;BME280;65481;47.600;19.682;2023-10-08T18:30:53;101010.28;;;11.88;54.57
76592;BME280;65481;47.600;19.682;2023-10-08T18:36:02;101009.81;;;11.73;55.16
76592;BME280;65481;47.600;19.682;2023-10-08T18:41:07;101011.25;;;11.69;55.50
76592;BME280;65481;47.600;19.682;2023-10-08T18:46:09;101024.97;;;11.59;55.72
76592;BME280;65481;47.600;19.682;2023-10-08T18:51:15;101027.66;;;11.52;56.07
76592;BME280;65481;47.600;19.682;2023-10-08T18:56:19;101045.59;;;11.43;56.12
76592;BME280;65481;47.600;19.682;2023-10-08T19:01:21;101037.94;;;11.35;56.29
76592;BME280;65481;47.600;19.682;2023-10-08T19:06:26;101045.91;;;11.28;56.65
76592;BME280;65481;47.600;19.682;2023-10-08T19:11:29;101057.94;;;11.17;57.07
76592;BME280;65481;47.600;19.682;2023-10-08T19:16:34;101073.47;;;11.00;57.60
76592;BME280;65481;47.600;19.682;2023-10-08T19:21:38;101073.72;;;10.85;58.53
76592;BME280;65481;47.600;19.682;2023-10-08T19:26:41;101079.25;;;10.70;59.12
76592;BME280;65481;47.600;19.682;2023-10-08T19:31:43;101079.47;;;10.62;58.99
76592;BME280;65481;47.600;19.682;2023-10-08T19:36:44;101098.53;;;10.64;58.90
76592;BME280;65481;47.600;19.682;2023-10-08T19:41:46;101117.66;;;10.59;59.16
76592;BME280;65481;47.600;19.682;2023-10-08T19:46:47;101120.91;;;10.55;59.02
76592;BME280;65481;47.600;19.682;2023-10-08T19:51:49;101122.31;;;10.57;58.98
76592;BME280;65481;47.600;19.682;2023-10-08T19:56:51;101126.16;;;10.62;58.46
76592;BME280;65481;47.600;19.682;2023-10-08T20:01:54;101118.06;;;10.43;58.98
76592;BME280;65481;47.600;19.682;2023-10-08T20:06:55;101139.97;;;10.30;58.74
76592;BME280;65481;47.600;19.682;2023-10-08T20:11:56;101160.66;;;10.20;58.57
76592;BME280;65481;47.600;19.682;2023-10-08T20:16:57;101172.00;;;10.13;58.64
76592;BME280;65481;47.600;19.682;2023-10-08T20:21:58;101165.91;;;10.06;58.73
76592;BME280;65481;47.600;19.682;2023-10-08T20:26:59;101177.91;;;10.02;58.53
76592;BME280;65481;47.600;19.682;2023-10-08T20:32:01;101178.91;;;9.94;58.51
76592;BME280;65481;47.600;19.682;2023-10-08T20:37:05;101182.53;;;9.93;58.16
76592;BME280;65481;47.600;19.682;2023-10-08T20:42:05;101198.13;;;9.88;57.46
76592;BME280;65481;47.600;19.682;2023-10-08T20:47:08;101195.50;;;9.95;57.09
76592;BME280;65481;47.600;19.682;2023-10-08T20:52:09;101192.50;;;10.05;57.12
76592;BME280;65481;47.600;19.682;2023-10-08T20:57:09;101184.13;;;9.88;57.43
76592;BME280;65481;47.600;19.682;2023-10-08T21:02:11;101197.69;;;9.78;56.72
76592;BME280;65481;47.600;19.682;2023-10-08T21:07:11;101208.00;;;9.66;56.86
76592;BME280;65481;47.600;19.682;2023-10-08T21:12:12;101221.38;;;9.64;56.57
76592;BME280;65481;47.600;19.682;2023-10-08T21:17:13;101231.47;;;9.54;56.41
76592;BME280;65481;47.600;19.682;2023-10-08T21:22:13;101232.34;;;9.26;57.13
76592;BME280;65481;47.600;19.682;2023-10-08T21:27:14;101239.28;;;9.05;57.31
76592;BME280;65481;47.600;19.682;2023-10-08T21:32:14;101241.50;;;9.02;57.34
76592;BME280;65481;47.600;19.682;2023-10-08T21:37:15;101237.16;;;9.16;56.74
76592;BME280;65481;47.600;19.682;2023-10-08T21:42:15;101228.69;;;8.92;57.26
76592;BME280;65481;47.600;19.682;2023-10-08T21:47:16;101227.84;;;8.85;57.16
76592;BME280;65481;47.600;19.682;2023-10-08T21:52:17;101230.25;;;8.86;57.31
76592;BME280;65481;47.600;19.682;2023-10-08T21:57:18;101233.44;;;8.75;57.50
76592;BME280;65481;47.600;19.682;2023-10-08T22:02:20;101222.91;;;8.75;57.67
76592;BME280;65481;47.600;19.682;2023-10-08T22:07:20;101245.50;;;8.69;57.53
76592;BME280;65481;47.600;19.682;2023-10-08T22:12:21;101265.00;;;8.75;57.44
76592;BME280;65481;47.600;19.682;2023-10-08T22:17:23;101253.59;;;8.68;57.77
76592;BME280;65481;47.600;19.682;2023-10-08T22:22:26;101266.56;;;8.69;57.63
76592;BME280;65481;47.600;19.682;2023-10-08T22:27:27;101266.19;;;8.72;57.87
76592;BME280;65481;47.600;19.682;2023-10-08T22:32:33;101264.56;;;8.71;58.48
76592;BME280;65481;47.600;19.682;2023-10-08T22:37:34;101265.00;;;8.75;58.47
76592;BME280;65481;47.600;19.682;2023-10-08T22:42:54;101283.13;;;8.26;59.64
76592;BME280;65481;47.600;19.682;2023-10-08T22:47:57;101273.03;;;8.08;60.56
76592;BME280;65481;47.600;19.682;2023-10-08T22:53:06;101269.63;;;8.14;60.45
76592;BME280;65481;47.600;19.682;2023-10-08T22:58:06;101273.97;;;8.22;60.53
76592;BME280;65481;47.600;19.682;2023-10-08T23:03:08;101273.72;;;8.17;60.54
76592;BME280;65481;47.600;19.682;2023-10-08T23:08:11;101283.06;;;8.19;60.68
76592;BME280;65481;47.600;19.682;2023-10-08T23:13:13;101290.31;;;8.17;60.50
76592;BME280;65481;47.600;19.682;2023-10-08T23:18:13;101288.16;;;8.06;60.98
76592;BME280;65481;47.600;19.682;2023-10-08T23:23:14;101293.50;;;7.98;61.40
76592;BME280;65481;47.600;19.682;2023-10-08T23:28:18;101291.00;;;7.90;61.17
76592;BME280;65481;47.600;19.682;2023-10-08T23:33:23;101279.25;;;7.55;62.65
76592;BME280;65481;47.600;19.682;2023-10-08T23:38:23;101291.19;;;7.28;63.86
76592;BME280;65481;47.600;19.682;2023-10-08T23:43:32;101291.78;;;7.00;65.55
76592;BME280;65481;47.600;19.682;2023-10-08T23:48:34;101284.00;;;7.07;65.47
76592;BME280;65481;47.600;19.682;2023-10-08T23:53:52;101291.09;;;7.36;64.13
76592;BME280;65481;47.600;19.682;2023-10-08T23:59:01;101295.19;;;7.39;64.72
